sensor_id;sensor_type;location;lat;lon;timestamp;P1;durP1;ratioP1;P2;durP2;ratioP2
51529;SDS011;37613;51.788;21.582;2023-07-22T00:00:36;7.10;;;5.30;;
51529;SDS011;37613;51.788;21.582;2023-07-22T00:18:22;8.60;;;4.70;;
51529;SDS011;37613;51.788;21.582;2023-07-22T01:02:47;8.60;;;5.30;;
51529;SDS011;37613;51.788;21.582;2023-07-22T01:24:53;9.50;;;5.20;;
51529;SDS011;37613;51.788;21.582;2023-07-22T01:29:08;10.40;;;4.90;;
51529;SDS011;37613;51.788;21.582;2023-07-22T01:42:46;8.80;;;5.60;;
51529;SDS011;37613;51.788;21.582;2023-07-22T01:47:21;8.10;;;5.20;;
51529;SDS011;37613;51.788;21.582;2023-07-22T02:09:38;6.80;;;5.00;;
51529;SDS011;37613;51.788;21.582;2023-07-22T02:22:47;5.80;;;5.20;;
51529;SDS011;37613;51.788;21.582;2023-07-22T02:27:20;11.90;;;5.50;;
51529;SDS011;37613;51.788;21.582;2023-07-22T02:32:00;6.30;;;4.60;;
51529;SDS011;37613;51.788;21.582;2023-07-22T02:36:21;7.90;;;4.70;;
51529;SDS011;37613;51.788;21.582;2023-07-22T02:40:34;8.20;;;5.80;;
51529;SDS011;37613;51.788;21.582;2023-07-22T02:44:46;6.20;;;4.90;;
51529;SDS011;37613;51.788;21.582;2023-07-22T02:48:52;7.10;;;6.30;;
51529;SDS011;37613;51.788;21.582;2023-07-22T02:53:01;8.50;;;6.40;;
51529;SDS011;37613;51.788;21.582;2023-07-22T02:57:13;7.20;;;5.50;;
51529;SDS011;37613;51.788;21.582;2023-07-22T03:01:25;5.90;;;5.20;;
51529;SDS011;37613;51.788;21.582;2023-07-22T03:05:42;7.00;;;5.60;;
51529;SDS011;37613;51.788;21.582;2023-07-22T03:10:21;9.00;;;7.20;;
51529;SDS011;37613;51.788;21.582;2023-07-22T03:23:26;8.20;;;6.90;;
51529;SDS011;37613;51.788;21.582;2023-07-22T03:27:50;8.40;;;7.20;;
51529;SDS011;37613;51.788;21.582;2023-07-22T03:36:57;10.00;;;6.90;;
51529;SDS011;37613;51.788;21.582;2023-07-22T03:59:33;15.30;;;9.80;;
51529;SDS011;37613;51.788;21.582;2023-07-22T04:03:44;10.90;;;7.60;;
51529;SDS011;37613;51.788;21.582;2023-07-22T04:08:02;9.10;;;7.20;;
51529;SDS011;37613;51.788;21.582;2023-07-22T04:12:17;10.80;;;6.60;;
51529;SDS011;37613;51.788;21.582;2023-07-22T04:16:29;7.50;;;6.60;;
51529;SDS011;37613;51.788;21.582;2023-07-22T04:20:38;10.30;;;7.30;;
51529;SDS011;37613;51.788;21.582;2023-07-22T04:24:54;7.10;;;6.50;;
51529;SDS011;37613;51.788;21.582;2023-07-22T04:29:20;7.30;;;6.40;;
51529;SDS011;37613;51.788;21.582;2023-07-22T04:33:29;8.70;;;7.40;;
51529;SDS011;37613;51.788;21.582;2023-07-22T04:37:44;9.10;;;7.20;;
51529;SDS011;37613;51.788;21.582;2023-07-22T04:41:53;7.50;;;6.20;;
51529;SDS011;37613;51.788;21.582;2023-07-22T04:46:14;5.70;;;4.90;;
51529;SDS011;37613;51.788;21.582;2023-07-22T04:50:26;5.30;;;4.80;;
51529;SDS011;37613;51.788;21.582;2023-07-22T04:54:35;5.30;;;4.60;;
51529;SDS011;37613;51.788;21.582;2023-07-22T04:58:44;6.20;;;4.20;;
51529;SDS011;37613;51.788;21.582;2023-07-22T05:03:02;8.50;;;4.20;;
51529;SDS011;37613;51.788;21.582;2023-07-22T05:07:29;5.30;;;3.70;;
51529;SDS011;37613;51.788;21.582;2023-07-22T06:10:12;4.70;;;3.30;;
51529;SDS011;37613;51.788;21.582;2023-07-22T06:18:57;3.60;;;3.20;;
51529;SDS011;37613;51.788;21.582;2023-07-22T06:23:06;3.40;;;2.80;;
51529;SDS011;37613;51.788;21.582;2023-07-22T06:27:18;3.20;;;2.80;;
51529;SDS011;37613;51.788;21.582;2023-07-22T06:39:52;5.70;;;3.30;;
51529;SDS011;37613;51.788;21.582;2023-07-22T06:44:08;9.00;;;4.10;;
51529;SDS011;37613;51.788;21.582;2023-07-22T06:48:15;3.80;;;3.50;;
51529;SDS011;37613;51.788;21.582;2023-07-22T06:52:19;6.50;;;3.50;;
51529;SDS011;37613;51.788;21.582;2023-07-22T06:56:31;9.40;;;5.80;;
51529;SDS011;37613;51.788;21.582;2023-07-22T07:00:33;10.50;;;5.30;;
51529;SDS011;37613;51.788;21.582;2023-07-22T07:04:34;10.10;;;7.40;;
51529;SDS011;37613;51.788;21.582;2023-07-22T07:08:36;10.50;;;6.40;;
51529;SDS011;37613;51.788;21.582;2023-07-22T07:12:42;12.30;;;5.80;;
51529;SDS011;37613;51.788;21.582;2023-07-22T07:16:43;4.00;;;3.10;;
51529;SDS011;37613;51.788;21.582;2023-07-22T07:20:45;2.80;;;2.60;;
51529;SDS011;37613;51.788;21.582;2023-07-22T07:24:49;4.00;;;3.60;;
51529;SDS011;37613;51.788;21.582;2023-07-22T07:28:51;4.50;;;3.30;;
51529;SDS011;37613;51.788;21.582;2023-07-22T07:36:55;3.40;;;2.70;;
51529;SDS011;37613;51.788;21.582;2023-07-22T07:40:57;3.80;;;2.60;;
51529;SDS011;37613;51.788;21.582;2023-07-22T07:45:00;2.60;;;2.20;;
51529;SDS011;37613;51.788;21.582;2023-07-22T07:49:02;4.70;;;1.90;;
51529;SDS011;37613;51.788;21.582;2023-07-22T07:53:03;1.90;;;1.70;;
51529;SDS011;37613;51.788;21.582;2023-07-22T07:57:08;2.50;;;1.50;;
51529;SDS011;37613;51.788;21.582;2023-07-22T08:01:18;2.80;;;2.30;;
51529;SDS011;37613;51.788;21.582;2023-07-22T08:05:24;6.60;;;1.70;;
51529;SDS011;37613;51.788;21.582;2023-07-22T08:09:34;2.60;;;1.70;;
51529;SDS011;37613;51.788;21.582;2023-07-22T08:14:03;1.60;;;1.50;;
51529;SDS011;37613;51.788;21.582;2023-07-22T08:18:07;2.40;;;1.40;;
51529;SDS011;37613;51.788;21.582;2023-07-22T08:26:47;1.50;;;1.30;;
51529;SDS011;37613;51.788;21.582;2023-07-22T08:31:22;3.90;;;1.00;;
51529;SDS011;37613;51.788;21.582;2023-07-22T08:35:39;1.10;;;1.00;;
51529;SDS011;37613;51.788;21.582;2023-07-22T08:39:41;1.50;;;1.00;;
51529;SDS011;37613;51.788;21.582;2023-07-22T08:43:43;2.10;;;1.30;;
51529;SDS011;37613;51.788;21.582;2023-07-22T08:47:47;1.80;;;1.10;;
51529;SDS011;37613;51.788;21.582;2023-07-22T08:51:52;1.20;;;1.00;;
51529;SDS011;37613;51.788;21.582;2023-07-22T08:55:55;1.40;;;1.30;;
51529;SDS011;37613;51.788;21.582;2023-07-22T08:59:57;4.80;;;1.40;;
51529;SDS011;37613;51.788;21.582;2023-07-22T09:03:58;1.40;;;1.30;;
51529;SDS011;37613;51.788;21.582;2023-07-22T09:08:01;1.70;;;1.40;;
51529;SDS011;37613;51.788;21.582;2023-07-22T09:12:04;2.00;;;1.80;;
51529;SDS011;37613;51.788;21.582;2023-07-22T09:16:07;1.80;;;1.30;;
51529;SDS011;37613;51.788;21.582;2023-07-22T09:20:09;1.60;;;1.50;;
51529;SDS011;37613;51.788;21.582;2023-07-22T09:24:21;1.80;;;1.50;;
51529;SDS011;37613;51.788;21.582;2023-07-22T09:28:25;3.00;;;1.50;;
51529;SDS011;37613;51.788;21.582;2023-07-22T09:32:36;2.60;;;1.80;;
51529;SDS011;37613;51.788;21.582;2023-07-22T09:40:55;2.10;;;1.60;;
51529;SDS011;37613;51.788;21.582;2023-07-22T09:45:01;2.20;;;1.60;;
51529;SDS011;37613;51.788;21.582;2023-07-22T09:49:30;1.70;;;1.50;;
51529;SDS011;37613;51.788;21.582;2023-07-22T09:53:37;1.60;;;1.40;;
51529;SDS011;37613;51.788;21.582;2023-07-22T09:57:43;3.70;;;1.90;;
51529;SDS011;37613;51.788;21.582;2023-07-22T10:01:55;1.50;;;1.40;;
51529;SDS011;37613;51.788;21.582;2023-07-22T10:06:18;1.60;;;1.30;;
51529;SDS011;37613;51.788;21.582;2023-07-22T10:14:29;2.50;;;1.30;;
51529;SDS011;37613;51.788;21.582;2023-07-22T10:18:44;3.50;;;1.30;;
51529;SDS011;37613;51.788;21.582;2023-07-22T10:22:48;1.50;;;1.20;;
51529;SDS011;37613;51.788;21.582;2023-07-22T10:26:52;2.00;;;1.50;;
51529;SDS011;37613;51.788;21.582;2023-07-22T10:31:06;1.80;;;1.20;;
51529;SDS011;37613;51.788;21.582;2023-07-22T10:35:21;1.50;;;1.00;;
51529;SDS011;37613;51.788;21.582;2023-07-22T10:39:41;1.80;;;1.30;;
51529;SDS011;37613;51.788;21.582;2023-07-22T10:48:59;3.60;;;1.20;;
51529;SDS011;37613;51.788;21.582;2023-07-22T10:53:41;4.00;;;1.50;;
51529;SDS011;37613;51.788;21.582;2023-07-22T10:57:49;2.50;;;1.10;;
51529;SDS011;37613;51.788;21.582;2023-07-22T11:01:55;3.80;;;1.20;;
51529;SDS011;37613;51.788;21.582;2023-07-22T11:06:02;1.00;;;0.90;;
51529;SDS011;37613;51.788;21.582;2023-07-22T11:10:25;1.10;;;0.90;;
51529;SDS011;37613;51.788;21.582;2023-07-22T11:14:32;2.70;;;1.00;;
51529;SDS011;37613;51.788;21.582;2023-07-22T11:18:58;1.00;;;0.90;;
51529;SDS011;37613;51.788;21.582;2023-07-22T11:22:59;1.40;;;1.00;;
51529;SDS011;37613;51.788;21.582;2023-07-22T11:27:02;2.60;;;1.10;;
51529;SDS011;37613;51.788;21.582;2023-07-22T11:31:05;1.30;;;1.20;;
51529;SDS011;37613;51.788;21.582;2023-07-22T11:35:06;1.10;;;1.00;;
51529;SDS011;37613;51.788;21.582;2023-07-22T11:39:08;2.60;;;1.50;;
51529;SDS011;37613;51.788;21.582;2023-07-22T11:43:11;1.00;;;1.00;;
51529;SDS011;37613;51.788;21.582;2023-07-22T11:47:13;1.30;;;1.10;;
51529;SDS011;37613;51.788;21.582;2023-07-22T11:51:15;1.20;;;1.10;;
51529;SDS011;37613;51.788;21.582;2023-07-22T11:55:22;2.20;;;1.00;;
51529;SDS011;37613;51.788;21.582;2023-07-22T12:03:58;1.20;;;1.10;;
51529;SDS011;37613;51.788;21.582;2023-07-22T12:08:00;1.60;;;1.20;;
51529;SDS011;37613;51.788;21.582;2023-07-22T12:12:01;1.90;;;1.10;;
51529;SDS011;37613;51.788;21.582;2023-07-22T12:16:03;1.80;;;1.40;;
51529;SDS011;37613;51.788;21.582;2023-07-22T12:20:06;1.00;;;0.90;;
51529;SDS011;37613;51.788;21.582;2023-07-22T12:24:13;1.10;;;1.00;;
51529;SDS011;37613;51.788;21.582;2023-07-22T12:28:15;2.20;;;1.20;;
51529;SDS011;37613;51.788;21.582;2023-07-22T12:32:21;1.30;;;1.20;;
51529;SDS011;37613;51.788;21.582;2023-07-22T12:36:22;8.10;;;7.00;;
51529;SDS011;37613;51.788;21.582;2023-07-22T12:40:23;1.30;;;1.20;;
51529;SDS011;37613;51.788;21.582;2023-07-22T12:44:25;1.10;;;1.00;;
51529;SDS011;37613;51.788;21.582;2023-07-22T12:48:26;3.50;;;1.70;;
51529;SDS011;37613;51.788;21.582;2023-07-22T12:52:28;22.50;;;20.20;;
51529;SDS011;37613;51.788;21.582;2023-07-22T12:56:30;7.20;;;4.30;;
51529;SDS011;37613;51.788;21.582;2023-07-22T13:00:31;5.70;;;5.20;;
51529;SDS011;37613;51.788;21.582;2023-07-22T13:04:33;2.50;;;2.30;;
51529;SDS011;37613;51.788;21.582;2023-07-22T13:08:34;3.20;;;2.30;;
51529;SDS011;37613;51.788;21.582;2023-07-22T13:12:36;4.70;;;2.80;;
51529;SDS011;37613;51.788;21.582;2023-07-22T13:16:38;9.90;;;6.60;;
51529;SDS011;37613;51.788;21.582;2023-07-22T13:20:39;1.40;;;1.30;;
51529;SDS011;37613;51.788;21.582;2023-07-22T13:28:42;2.70;;;1.90;;
51529;SDS011;37613;51.788;21.582;2023-07-22T13:32:43;2.30;;;2.00;;
51529;SDS011;37613;51.788;21.582;2023-07-22T13:36:46;3.30;;;1.50;;
51529;SDS011;37613;51.788;21.582;2023-07-22T13:40:47;1.40;;;1.30;;
51529;SDS011;37613;51.788;21.582;2023-07-22T13:44:49;1.30;;;1.20;;
51529;SDS011;37613;51.788;21.582;2023-07-22T13:48:53;1.40;;;1.30;;
51529;SDS011;37613;51.788;21.582;2023-07-22T13:52:54;31.00;;;10.80;;
51529;SDS011;37613;51.788;21.582;2023-07-22T13:56:55;19.40;;;8.60;;
51529;SDS011;37613;51.788;21.582;2023-07-22T14:00:57;3.30;;;1.80;;
51529;SDS011;37613;51.788;21.582;2023-07-22T14:04:58;1.20;;;1.10;;
51529;SDS011;37613;51.788;21.582;2023-07-22T14:08:59;11.90;;;4.50;;
51529;SDS011;37613;51.788;21.582;2023-07-22T14:13:01;2.50;;;2.30;;
51529;SDS011;37613;51.788;21.582;2023-07-22T14:17:02;8.80;;;4.00;;
51529;SDS011;37613;51.788;21.582;2023-07-22T14:21:05;5.40;;;2.50;;
51529;SDS011;37613;51.788;21.582;2023-07-22T14:25:06;13.00;;;5.60;;
51529;SDS011;37613;51.788;21.582;2023-07-22T14:29:08;6.30;;;3.30;;
51529;SDS011;37613;51.788;21.582;2023-07-22T14:33:09;2.40;;;1.90;;
51529;SDS011;37613;51.788;21.582;2023-07-22T14:37:11;6.00;;;2.60;;
51529;SDS011;37613;51.788;21.582;2023-07-22T14:41:12;22.00;;;8.50;;
51529;SDS011;37613;51.788;21.582;2023-07-22T14:45:14;7.20;;;4.40;;
51529;SDS011;37613;51.788;21.582;2023-07-22T14:49:15;6.90;;;2.40;;
51529;SDS011;37613;51.788;21.582;2023-07-22T14:53:17;1.40;;;1.20;;
51529;SDS011;37613;51.788;21.582;2023-07-22T14:57:24;2.30;;;1.70;;
51529;SDS011;37613;51.788;21.582;2023-07-22T15:01:37;4.00;;;1.50;;
51529;SDS011;37613;51.788;21.582;2023-07-22T15:05:41;5.60;;;1.60;;
51529;SDS011;37613;51.788;21.582;2023-07-22T15:09:45;3.00;;;1.20;;
51529;SDS011;37613;51.788;21.582;2023-07-22T15:13:50;2.90;;;1.50;;
51529;SDS011;37613;51.788;21.582;2023-07-22T15:17:52;2.00;;;1.50;;
51529;SDS011;37613;51.788;21.582;2023-07-22T15:21:53;3.70;;;1.90;;
51529;SDS011;37613;51.788;21.582;2023-07-22T15:25:54;9.60;;;5.50;;
51529;SDS011;37613;51.788;21.582;2023-07-22T15:29:56;2.00;;;1.70;;
51529;SDS011;37613;51.788;21.582;2023-07-22T15:34:00;6.90;;;3.50;;
51529;SDS011;37613;51.788;21.582;2023-07-22T15:38:02;15.90;;;8.00;;
51529;SDS011;37613;51.788;21.582;2023-07-22T15:42:09;13.00;;;6.20;;
51529;SDS011;37613;51.788;21.582;2023-07-22T15:46:10;4.00;;;3.20;;
51529;SDS011;37613;51.788;21.582;2023-07-22T15:50:14;1.60;;;1.50;;
51529;SDS011;37613;51.788;21.582;2023-07-22T15:54:16;3.20;;;1.60;;
51529;SDS011;37613;51.788;21.582;2023-07-22T15:58:17;7.00;;;2.10;;
51529;SDS011;37613;51.788;21.582;2023-07-22T16:02:20;1.70;;;1.60;;
51529;SDS011;37613;51.788;21.582;2023-07-22T16:06:22;2.00;;;1.40;;
51529;SDS011;37613;51.788;21.582;2023-07-22T16:10:23;2.10;;;1.40;;
51529;SDS011;37613;51.788;21.582;2023-07-22T16:14:31;1.90;;;1.80;;
51529;SDS011;37613;51.788;21.582;2023-07-22T16:18:32;2.00;;;1.80;;
51529;SDS011;37613;51.788;21.582;2023-07-22T16:22:34;1.50;;;1.40;;
51529;SDS011;37613;51.788;21.582;2023-07-22T16:26:35;3.70;;;1.40;;
51529;SDS011;37613;51.788;21.582;2023-07-22T16:30:36;3.80;;;1.20;;
51529;SDS011;37613;51.788;21.582;2023-07-22T16:34:37;1.90;;;1.50;;
51529;SDS011;37613;51.788;21.582;2023-07-22T16:38:39;1.90;;;1.60;;
51529;SDS011;37613;51.788;21.582;2023-07-22T16:42:40;2.20;;;1.70;;
51529;SDS011;37613;51.788;21.582;2023-07-22T16:46:42;9.10;;;2.00;;
51529;SDS011;37613;51.788;21.582;2023-07-22T16:50:44;1.70;;;1.60;;
51529;SDS011;37613;51.788;21.582;2023-07-22T16:54:45;1.30;;;1.20;;
51529;SDS011;37613;51.788;21.582;2023-07-22T16:58:46;7.90;;;1.60;;
51529;SDS011;37613;51.788;21.582;2023-07-22T17:02:47;2.30;;;1.70;;
51529;SDS011;37613;51.788;21.582;2023-07-22T17:06:49;1.70;;;1.60;;
51529;SDS011;37613;51.788;21.582;2023-07-22T17:10:50;2.20;;;1.40;;
51529;SDS011;37613;51.788;21.582;2023-07-22T17:14:54;7.00;;;1.80;;
51529;SDS011;37613;51.788;21.582;2023-07-22T17:18:55;5.00;;;1.80;;
51529;SDS011;37613;51.788;21.582;2023-07-22T17:22:57;2.20;;;1.70;;
51529;SDS011;37613;51.788;21.582;2023-07-22T17:27:10;1.80;;;1.60;;
51529;SDS011;37613;51.788;21.582;2023-07-22T17:31:12;1.50;;;1.40;;
51529;SDS011;37613;51.788;21.582;2023-07-22T17:42:27;1.70;;;1.60;;
51529;SDS011;37613;51.788;21.582;2023-07-22T17:46:30;2.20;;;2.00;;
51529;SDS011;37613;51.788;21.582;2023-07-22T17:50:33;4.30;;;3.90;;
51529;SDS011;37613;51.788;21.582;2023-07-22T17:54:36;13.30;;;11.90;;
51529;SDS011;37613;51.788;21.582;2023-07-22T18:02:41;20.00;;;16.10;;
51529;SDS011;37613;51.788;21.582;2023-07-22T18:06:43;35.90;;;20.40;;
51529;SDS011;37613;51.788;21.582;2023-07-22T18:10:45;20.80;;;9.90;;
51529;SDS011;37613;51.788;21.582;2023-07-22T18:18:49;22.00;;;3.70;;
51529;SDS011;37613;51.788;21.582;2023-07-22T18:26:54;8.10;;;3.30;;
51529;SDS011;37613;51.788;21.582;2023-07-22T18:34:59;35.70;;;4.80;;
51529;SDS011;37613;51.788;21.582;2023-07-22T18:39:01;8.00;;;2.20;;
51529;SDS011;37613;51.788;21.582;2023-07-22T18:43:05;11.00;;;2.50;;
51529;SDS011;37613;51.788;21.582;2023-07-22T18:47:08;4.00;;;2.60;;
51529;SDS011;37613;51.788;21.582;2023-07-22T18:55:12;11.20;;;2.70;;
51529;SDS011;37613;51.788;21.582;2023-07-22T18:59:16;77.90;;;8.20;;
51529;SDS011;37613;51.788;21.582;2023-07-22T19:03:18;14.00;;;3.00;;
51529;SDS011;37613;51.788;21.582;2023-07-22T19:07:21;9.50;;;3.00;;
51529;SDS011;37613;51.788;21.582;2023-07-22T19:11:31;3.40;;;2.50;;
51529;SDS011;37613;51.788;21.582;2023-07-22T19:15:33;2.30;;;2.10;;
51529;SDS011;37613;51.788;21.582;2023-07-22T19:23:43;3.40;;;2.20;;
51529;SDS011;37613;51.788;21.582;2023-07-22T19:27:46;2.90;;;2.20;;
51529;SDS011;37613;51.788;21.582;2023-07-22T19:36:01;2.70;;;2.40;;
51529;SDS011;37613;51.788;21.582;2023-07-22T19:40:08;4.50;;;2.40;;
51529;SDS011;37613;51.788;21.582;2023-07-22T19:44:12;4.10;;;2.40;;
51529;SDS011;37613;51.788;21.582;2023-07-22T19:48:14;4.80;;;2.40;;
51529;SDS011;37613;51.788;21.582;2023-07-22T19:56:28;4.00;;;2.40;;
51529;SDS011;37613;51.788;21.582;2023-07-22T20:00:34;4.10;;;2.90;;
51529;SDS011;37613;51.788;21.582;2023-07-22T20:04:38;3.20;;;2.60;;
51529;SDS011;37613;51.788;21.582;2023-07-22T20:08:41;5.40;;;3.10;;
51529;SDS011;37613;51.788;21.582;2023-07-22T20:12:47;4.40;;;2.90;;
51529;SDS011;37613;51.788;21.582;2023-07-22T20:16:49;3.30;;;3.00;;
51529;SDS011;37613;51.788;21.582;2023-07-22T20:24:56;4.70;;;3.40;;
51529;SDS011;37613;51.788;21.582;2023-07-22T20:28:59;7.40;;;3.90;;
51529;SDS011;37613;51.788;21.582;2023-07-22T20:33:04;4.20;;;3.80;;
51529;SDS011;37613;51.788;21.582;2023-07-22T20:37:14;6.30;;;4.30;;
51529;SDS011;37613;51.788;21.582;2023-07-22T20:41:20;5.30;;;4.00;;
51529;SDS011;37613;51.788;21.582;2023-07-22T20:45:29;4.70;;;4.10;;
51529;SDS011;37613;51.788;21.582;2023-07-22T20:49:31;7.80;;;4.80;;
51529;SDS011;37613;51.788;21.582;2023-07-22T20:53:37;5.80;;;4.00;;
51529;SDS011;37613;51.788;21.582;2023-07-22T20:57:42;8.20;;;5.70;;
51529;SDS011;37613;51.788;21.582;2023-07-22T21:01:44;8.80;;;5.90;;
51529;SDS011;37613;51.788;21.582;2023-07-22T21:05:55;10.30;;;5.90;;
51529;SDS011;37613;51.788;21.582;2023-07-22T21:10:02;9.60;;;6.50;;
51529;SDS011;37613;51.788;21.582;2023-07-22T21:14:06;13.40;;;6.00;;
51529;SDS011;37613;51.788;21.582;2023-07-22T21:18:08;10.50;;;6.80;;
51529;SDS011;37613;51.788;21.582;2023-07-22T21:22:13;10.50;;;6.20;;
51529;SDS011;37613;51.788;21.582;2023-07-22T21:26:18;8.90;;;6.20;;
51529;SDS011;37613;51.788;21.582;2023-07-22T21:30:31;9.30;;;6.00;;
51529;SDS011;37613;51.788;21.582;2023-07-22T21:34:40;8.60;;;6.00;;
51529;SDS011;37613;51.788;21.582;2023-07-22T21:38:48;12.10;;;7.20;;
51529;SDS011;37613;51.788;21.582;2023-07-22T21:42:59;11.10;;;8.10;;
51529;SDS011;37613;51.788;21.582;2023-07-22T21:47:04;19.30;;;11.40;;
51529;SDS011;37613;51.788;21.582;2023-07-22T21:51:10;18.20;;;11.80;;
51529;SDS011;37613;51.788;21.582;2023-07-22T21:55:23;23.10;;;12.90;;
51529;SDS011;37613;51.788;21.582;2023-07-22T21:59:36;30.30;;;15.60;;
51529;SDS011;37613;51.788;21.582;2023-07-22T22:03:50;43.10;;;20.30;;
51529;SDS011;37613;51.788;21.582;2023-07-22T22:12:14;65.00;;;23.50;;
51529;SDS011;37613;51.788;21.582;2023-07-22T22:16:22;56.60;;;25.50;;
51529;SDS011;37613;51.788;21.582;2023-07-22T22:20:24;44.20;;;22.20;;
51529;SDS011;37613;51.788;21.582;2023-07-22T22:24:29;42.10;;;20.50;;
51529;SDS011;37613;51.788;21.582;2023-07-22T22:28:55;35.10;;;19.20;;
51529;SDS011;37613;51.788;21.582;2023-07-22T22:33:10;30.10;;;16.10;;
51529;SDS011;37613;51.788;21.582;2023-07-22T22:37:20;36.90;;;15.70;;
51529;SDS011;37613;51.788;21.582;2023-07-22T22:41:42;41.10;;;17.00;;
51529;SDS011;37613;51.788;21.582;2023-07-22T22:45:53;36.10;;;17.40;;
51529;SDS011;37613;51.788;21.582;2023-07-22T22:50:11;38.60;;;17.10;;
51529;SDS011;37613;51.788;21.582;2023-07-22T22:54:27;28.40;;;13.60;;
51529;SDS011;37613;51.788;21.582;2023-07-22T22:58:56;27.80;;;12.80;;
51529;SDS011;37613;51.788;21.582;2023-07-22T23:03:11;26.90;;;11.50;;
51529;SDS011;37613;51.788;21.582;2023-07-22T23:07:24;20.70;;;10.00;;
51529;SDS011;37613;51.788;21.582;2023-07-22T23:11:43;18.00;;;9.20;;
51529;SDS011;37613;51.788;21.582;2023-07-22T23:15:59;36.00;;;14.00;;
51529;SDS011;37613;51.788;21.582;2023-07-22T23:20:16;30.30;;;12.60;;
51529;SDS011;37613;51.788;21.582;2023-07-22T23:24:38;19.80;;;10.70;;
51529;SDS011;37613;51.788;21.582;2023-07-22T23:28:55;18.90;;;9.90;;
51529;SDS011;37613;51.788;21.582;2023-07-22T23:33:15;23.50;;;10.00;;
51529;SDS011;37613;51.788;21.582;2023-07-22T23:37:32;19.30;;;9.80;;
51529;SDS011;37613;51.788;21.582;2023-07-22T23:41:48;16.90;;;8.80;;
51529;SDS011;37613;51.788;21.582;2023-07-22T23:46:12;12.80;;;7.90;;
51529;SDS011;37613;51.788;21.582;2023-07-22T23:50:34;16.70;;;8.00;;
51529;SDS011;37613;51.788;21.582;2023-07-22T23:54:54;14.50;;;7.70;;
51529;SDS011;37613;51.788;21.582;2023-07-22T23:59:10;13.60;;;7.20;;
